Terminal Aerodrome Forecast
Issued by NWS Grand Forks, ND

Home | Current Version | Previous Version | Graphics & Text | Print | Product List | Glossary On
Versions: 1 2 3 4 5 6 7 8 9 10 11 12 13 14 15 16 17 18 19 20 21 22
000
FTUS43 KFGF 240520
TAFFAR
TAF
KFAR 240520Z 2406/2506 04006KT 5SM -SHRA OVC009
     FM240700 03007KT 5SM -SHRA OVC008
     FM241000 02007KT 5SM -SHRA OVC003
     FM241600 35007KT P6SM VCSH OVC008
     FM250000 34009KT P6SM OVC008=

USA.gov is the U.S. government's official web portal to all federal, state and local government web resources and services.